Flight Track Log - Related Links

Times and Time Zones

All times are in EDT time to prevent confusion due to time zone crossing. See the CPT7773 flight status page for this flight to view local times or setup timezone preferences in your user account.

Time Position Orientation Groundspeed Altitude Reporting Facility
EDT Latitude Longitude Course Direction KTS MPH feet Rate Location/Type
Wed 08:01:00 PM 44.3791 -108.7094 120° Southeast  Level FlightAware Approximate
Wed 08:02:00 PM 44.3552 -108.6522 120° Southeast  Level FlightAware Approximate
Wed 08:03:00 PM 44.3456 -108.5790 144° Southeast  Level FlightAware Approximate
Wed 08:04:00 PM 44.3097 -108.5381 129° Southeast  Level FlightAware Approximate
Wed 08:05:00 PM 44.2803 -108.4876 129° Southeast  Level FlightAware Approximate
Wed 08:06:00 PM 44.2509 -108.4371 129° Southeast  Level FlightAware Approximate
Wed 08:07:00 PM 44.2215 -108.3867 129° Southeast  Level FlightAware Approximate
Wed 08:08:00 PM 44.1913 -108.3373 134° Southeast  Level FlightAware Approximate
Wed 08:09:00 PM 44.1589 -108.2906 134° Southeast  Level FlightAware Approximate
Wed 08:10:00 PM 44.1266 -108.2439 134° Southeast  Level FlightAware Approximate
Wed 08:11:00 PM 44.0942 -108.1973 134° Southeast  Level FlightAware Approximate
Wed 08:12:00 PM 44.0618 -108.1507 134° Southeast  Level FlightAware Approximate
Wed 08:13:00 PM 44.0294 -108.1041 134° Southeast  Level FlightAware Approximate
Wed 08:14:00 PM 43.9969 -108.0576 134° Southeast  Level FlightAware Approximate
Wed 08:15:00 PM 43.9645 -108.0111 134° Southeast  Level FlightAware Approximate
Wed 08:16:00 PM 43.9320 -107.9647 132° Southeast  Level FlightAware Approximate
Wed 08:17:00 PM 43.9009 -107.9166 132° Southeast  Level FlightAware Approximate
Wed 08:18:00 PM 43.8697 -107.8686 132° Southeast  Level FlightAware Approximate
Wed 08:19:00 PM 43.8385 -107.8206 132° Southeast  Level FlightAware Approximate
Wed 08:20:00 PM 43.8073 -107.7727 132° Southeast  Level FlightAware Approximate
Wed 08:21:00 PM 43.7760 -107.7248 132° Southeast  Level FlightAware Approximate
Wed 08:22:00 PM 43.7447 -107.6770 132° Southeast  Level FlightAware Approximate
Wed 08:23:00 PM 43.7135 -107.6292 132° Southeast  Level FlightAware Approximate
Wed 08:23:20 PM 43.5983 -107.4650 134° Southeast 173 199 12,000  Level Denver Center
Wed 08:24:00 PM 43.6821 -107.5816 134° Southeast  Level FlightAware Approximate
Wed 08:24:22 PM 43.5678 -107.4197 133° Southeast 173 199 12,000  Level Denver Center
Wed 08:25:00 PM 43.6499 -107.5350 134° Southeast  Level FlightAware Approximate
Wed 08:25:37 PM 43.4167 -107.2522 141° Southeast 180 207 12,000  Level Denver Center
Wed 08:26:00 PM 43.6179 -107.4888 134° Southeast  Level FlightAware Approximate
Wed 08:26:39 PM 43.3858 -107.2031 131° Southeast 177 204 12,100  Level Denver Center
Wed 08:27:00 PM 43.5858 -107.4426 134° Southeast  Level FlightAware Approximate
Wed 08:27:41 PM 43.3514 -107.1461 130° Southeast 176 203 12,100  Level Denver Center
Wed 08:28:00 PM 43.5538 -107.3964 134° Southeast  Level FlightAware Approximate
Wed 08:28:43 PM 43.3197 -107.0986 132° Southeast 175 201 12,000  Level Denver Center
Wed 08:29:45 PM 43.2881 -107.0525 133° Southeast 174 200 12,100 48 Climbing Denver Center
Wed 08:30:47 PM 43.2536 -106.9981 131° Southeast 172 198 12,100  Level Denver Center
Wed 08:31:49 PM 43.2242 -106.9519 131° Southeast 170 196 12,100 -194 Level Denver Center
Wed 08:32:51 PM 43.1889 -106.8969 131° Southeast 170 196 11,700 -387 Descending Denver Center
Wed 08:33:53 PM 43.1572 -106.8478 131° Southeast 175 201 11,300 -532 Descending Denver Center
Wed 08:34:55 PM 43.1172 -106.7864 132° Southeast 185 213 10,600 -726 Descending Denver Center
Wed 08:35:57 PM 43.0817 -106.7322 132° Southeast 193 222 9,800 -823 Descending Denver Center
Wed 08:36:59 PM 43.0397 -106.6700 133° Southeast 198 228 8,900 -720 Descending Denver Center
Wed 08:38:02 PM 43.0056 -106.6169 131° Southeast 197 227 8,300 -624 Descending Denver Center
Wed 08:39:04 PM 42.9736 -106.5489 123° Southeast 194 223 7,600 -629 Descending Denver Center
Wed 08:40:06 PM 42.9439 -106.4811 121° Southeast 195 224 7,000 -581 Descending Denver Center
Wed 08:42:00 PM 42.9080 -106.4644 124° Southeast  Level Estimated
Wed 08:49:00 PM 42.9080 -106.4644 124° Southeast  Level Estimated
Wed 08:50:00 PM 42.9080 -106.4644 124° Southeast  Level Estimated

Login

Don't have an account? Register now (free) for customized features, flight alerts, and more!